sensor_id;sensor_type;location;lat;lon;timestamp;P1;durP1;ratioP1;P2;durP2;ratioP2
10882;SDS011;5494;51.796;10.952;2023-09-08T00:01:41;7.57;;;5.60;;
10882;SDS011;5494;51.796;10.952;2023-09-08T00:04:09;6.50;;;5.30;;
10882;SDS011;5494;51.796;10.952;2023-09-08T00:06:38;5.97;;;5.17;;
10882;SDS011;5494;51.796;10.952;2023-09-08T00:09:06;8.20;;;5.67;;
10882;SDS011;5494;51.796;10.952;2023-09-08T00:11:35;6.40;;;5.73;;
10882;SDS011;5494;51.796;10.952;2023-09-08T00:14:02;9.23;;;5.90;;
10882;SDS011;5494;51.796;10.952;2023-09-08T00:16:32;7.10;;;6.07;;
10882;SDS011;5494;51.796;10.952;2023-09-08T00:19:00;9.00;;;6.43;;
10882;SDS011;5494;51.796;10.952;2023-09-08T00:21:28;12.60;;;7.23;;
10882;SDS011;5494;51.796;10.952;2023-09-08T00:23:57;8.10;;;5.87;;
10882;SDS011;5494;51.796;10.952;2023-09-08T00:26:27;8.93;;;6.67;;
10882;SDS011;5494;51.796;10.952;2023-09-08T00:28:55;7.33;;;6.23;;
10882;SDS011;5494;51.796;10.952;2023-09-08T00:31:23;8.97;;;6.20;;
10882;SDS011;5494;51.796;10.952;2023-09-08T00:33:53;7.77;;;6.97;;
10882;SDS011;5494;51.796;10.952;2023-09-08T00:36:21;8.87;;;6.83;;
10882;SDS011;5494;51.796;10.952;2023-09-08T00:38:49;10.43;;;7.17;;
10882;SDS011;5494;51.796;10.952;2023-09-08T00:41:18;7.70;;;6.53;;
10882;SDS011;5494;51.796;10.952;2023-09-08T00:43:46;7.77;;;6.50;;
10882;SDS011;5494;51.796;10.952;2023-09-08T00:46:14;7.47;;;6.40;;
10882;SDS011;5494;51.796;10.952;2023-09-08T00:48:44;10.50;;;6.97;;
10882;SDS011;5494;51.796;10.952;2023-09-08T00:51:14;9.20;;;7.63;;
10882;SDS011;5494;51.796;10.952;2023-09-08T00:53:42;7.37;;;6.63;;
10882;SDS011;5494;51.796;10.952;2023-09-08T00:56:11;7.07;;;6.37;;
10882;SDS011;5494;51.796;10.952;2023-09-08T00:58:40;8.93;;;7.07;;
10882;SDS011;5494;51.796;10.952;2023-09-08T01:01:08;8.50;;;6.80;;
10882;SDS011;5494;51.796;10.952;2023-09-08T01:03:36;9.37;;;6.77;;
10882;SDS011;5494;51.796;10.952;2023-09-08T01:06:05;8.90;;;6.53;;
10882;SDS011;5494;51.796;10.952;2023-09-08T01:08:35;8.17;;;6.67;;
10882;SDS011;5494;51.796;10.952;2023-09-08T01:11:04;8.23;;;7.07;;
10882;SDS011;5494;51.796;10.952;2023-09-08T01:13:34;7.93;;;6.33;;
10882;SDS011;5494;51.796;10.952;2023-09-08T01:16:02;8.63;;;6.43;;
10882;SDS011;5494;51.796;10.952;2023-09-08T01:18:30;10.67;;;7.07;;
10882;SDS011;5494;51.796;10.952;2023-09-08T01:21:12;8.60;;;6.10;;
10882;SDS011;5494;51.796;10.952;2023-09-08T01:24:11;9.87;;;7.00;;
10882;SDS011;5494;51.796;10.952;2023-09-08T01:27:05;7.67;;;6.83;;
10882;SDS011;5494;51.796;10.952;2023-09-08T01:29:36;9.57;;;7.00;;
10882;SDS011;5494;51.796;10.952;2023-09-08T01:32:09;7.97;;;6.97;;
10882;SDS011;5494;51.796;10.952;2023-09-08T01:34:38;8.67;;;6.63;;
10882;SDS011;5494;51.796;10.952;2023-09-08T01:37:07;8.07;;;6.83;;
10882;SDS011;5494;51.796;10.952;2023-09-08T01:39:35;7.47;;;6.77;;
10882;SDS011;5494;51.796;10.952;2023-09-08T01:42:04;9.03;;;7.13;;
10882;SDS011;5494;51.796;10.952;2023-09-08T01:44:33;8.53;;;7.23;;
10882;SDS011;5494;51.796;10.952;2023-09-08T01:47:02;9.17;;;7.27;;
10882;SDS011;5494;51.796;10.952;2023-09-08T01:49:31;8.37;;;7.57;;
10882;SDS011;5494;51.796;10.952;2023-09-08T01:51:59;8.40;;;7.33;;
10882;SDS011;5494;51.796;10.952;2023-09-08T01:54:28;8.77;;;7.87;;
10882;SDS011;5494;51.796;10.952;2023-09-08T01:56:56;9.97;;;7.80;;
10882;SDS011;5494;51.796;10.952;2023-09-08T01:59:25;10.53;;;7.93;;
10882;SDS011;5494;51.796;10.952;2023-09-08T02:01:53;10.80;;;7.77;;
10882;SDS011;5494;51.796;10.952;2023-09-08T02:04:22;9.10;;;7.53;;
10882;SDS011;5494;51.796;10.952;2023-09-08T02:06:51;8.87;;;7.97;;
10882;SDS011;5494;51.796;10.952;2023-09-08T02:09:19;8.83;;;7.93;;
10882;SDS011;5494;51.796;10.952;2023-09-08T02:11:47;9.23;;;8.30;;
10882;SDS011;5494;51.796;10.952;2023-09-08T02:14:15;10.33;;;8.67;;
10882;SDS011;5494;51.796;10.952;2023-09-08T02:16:46;9.67;;;8.67;;
10882;SDS011;5494;51.796;10.952;2023-09-08T02:19:15;11.37;;;8.53;;
10882;SDS011;5494;51.796;10.952;2023-09-08T02:21:44;11.43;;;9.57;;
10882;SDS011;5494;51.796;10.952;2023-09-08T02:24:12;12.03;;;9.17;;
10882;SDS011;5494;51.796;10.952;2023-09-08T02:26:41;11.17;;;9.93;;
10882;SDS011;5494;51.796;10.952;2023-09-08T02:29:10;10.87;;;9.77;;
10882;SDS011;5494;51.796;10.952;2023-09-08T02:31:38;13.00;;;9.87;;
10882;SDS011;5494;51.796;10.952;2023-09-08T02:34:09;11.23;;;9.30;;
10882;SDS011;5494;51.796;10.952;2023-09-08T02:36:38;11.90;;;10.00;;
10882;SDS011;5494;51.796;10.952;2023-09-08T02:39:09;10.90;;;9.20;;
10882;SDS011;5494;51.796;10.952;2023-09-08T02:41:38;11.40;;;9.90;;
10882;SDS011;5494;51.796;10.952;2023-09-08T02:44:06;11.10;;;10.00;;
10882;SDS011;5494;51.796;10.952;2023-09-08T02:46:34;10.50;;;9.50;;
10882;SDS011;5494;51.796;10.952;2023-09-08T02:49:02;12.53;;;9.67;;
10882;SDS011;5494;51.796;10.952;2023-09-08T02:51:32;10.57;;;9.47;;
10882;SDS011;5494;51.796;10.952;2023-09-08T02:54:00;13.10;;;9.13;;
10882;SDS011;5494;51.796;10.952;2023-09-08T02:56:28;11.40;;;8.80;;
10882;SDS011;5494;51.796;10.952;2023-09-08T02:58:56;9.90;;;8.97;;
10882;SDS011;5494;51.796;10.952;2023-09-08T03:01:24;10.63;;;9.57;;
10882;SDS011;5494;51.796;10.952;2023-09-08T03:03:54;11.53;;;9.73;;
10882;SDS011;5494;51.796;10.952;2023-09-08T03:06:23;10.70;;;9.60;;
10882;SDS011;5494;51.796;10.952;2023-09-08T03:08:52;14.10;;;9.10;;
10882;SDS011;5494;51.796;10.952;2023-09-08T03:11:22;10.77;;;9.40;;
10882;SDS011;5494;51.796;10.952;2023-09-08T03:13:50;11.17;;;10.03;;
10882;SDS011;5494;51.796;10.952;2023-09-08T03:16:18;12.17;;;10.73;;
10882;SDS011;5494;51.796;10.952;2023-09-08T03:18:47;11.40;;;9.50;;
10882;SDS011;5494;51.796;10.952;2023-09-08T03:21:16;10.10;;;8.83;;
10882;SDS011;5494;51.796;10.952;2023-09-08T03:23:45;11.80;;;9.97;;
10882;SDS011;5494;51.796;10.952;2023-09-08T03:26:14;10.67;;;9.53;;
10882;SDS011;5494;51.796;10.952;2023-09-08T03:28:42;10.33;;;9.30;;
10882;SDS011;5494;51.796;10.952;2023-09-08T03:31:10;11.63;;;9.00;;
10882;SDS011;5494;51.796;10.952;2023-09-08T03:33:39;10.93;;;9.83;;
10882;SDS011;5494;51.796;10.952;2023-09-08T03:36:09;10.37;;;9.30;;
10882;SDS011;5494;51.796;10.952;2023-09-08T03:38:37;11.03;;;9.03;;
10882;SDS011;5494;51.796;10.952;2023-09-08T03:41:07;12.33;;;9.30;;
10882;SDS011;5494;51.796;10.952;2023-09-08T03:43:37;10.07;;;9.07;;
10882;SDS011;5494;51.796;10.952;2023-09-08T03:46:05;11.33;;;10.10;;
10882;SDS011;5494;51.796;10.952;2023-09-08T03:48:33;10.17;;;9.13;;
10882;SDS011;5494;51.796;10.952;2023-09-08T03:51:01;10.33;;;9.30;;
10882;SDS011;5494;51.796;10.952;2023-09-08T03:53:30;10.53;;;9.53;;
10882;SDS011;5494;51.796;10.952;2023-09-08T03:56:00;10.73;;;9.63;;
10882;SDS011;5494;51.796;10.952;2023-09-08T03:58:28;10.77;;;9.67;;
10882;SDS011;5494;51.796;10.952;2023-09-08T04:00:58;10.60;;;9.50;;
10882;SDS011;5494;51.796;10.952;2023-09-08T04:03:26;10.60;;;9.50;;
10882;SDS011;5494;51.796;10.952;2023-09-08T04:05:56;10.60;;;9.50;;
10882;SDS011;5494;51.796;10.952;2023-09-08T04:08:24;12.00;;;9.67;;
10882;SDS011;5494;51.796;10.952;2023-09-08T04:10:52;11.20;;;10.10;;
10882;SDS011;5494;51.796;10.952;2023-09-08T04:13:21;11.63;;;10.40;;
10882;SDS011;5494;51.796;10.952;2023-09-08T04:15:49;13.40;;;10.33;;
10882;SDS011;5494;51.796;10.952;2023-09-08T04:18:19;11.43;;;9.93;;
10882;SDS011;5494;51.796;10.952;2023-09-08T04:20:47;10.97;;;9.80;;
10882;SDS011;5494;51.796;10.952;2023-09-08T04:23:15;11.70;;;10.03;;
10882;SDS011;5494;51.796;10.952;2023-09-08T04:25:44;12.87;;;10.67;;
10882;SDS011;5494;51.796;10.952;2023-09-08T04:28:13;12.30;;;11.00;;
10882;SDS011;5494;51.796;10.952;2023-09-08T04:30:41;13.47;;;10.83;;
10882;SDS011;5494;51.796;10.952;2023-09-08T04:33:09;12.33;;;11.07;;
10882;SDS011;5494;51.796;10.952;2023-09-08T04:35:39;12.73;;;11.13;;
10882;SDS011;5494;51.796;10.952;2023-09-08T04:38:07;12.33;;;10.60;;
10882;SDS011;5494;51.796;10.952;2023-09-08T04:40:35;13.17;;;11.03;;
10882;SDS011;5494;51.796;10.952;2023-09-08T04:43:04;12.43;;;10.70;;
10882;SDS011;5494;51.796;10.952;2023-09-08T04:45:32;12.93;;;11.57;;
10882;SDS011;5494;51.796;10.952;2023-09-08T04:48:00;12.73;;;11.33;;
10882;SDS011;5494;51.796;10.952;2023-09-08T04:50:28;12.30;;;11.10;;
10882;SDS011;5494;51.796;10.952;2023-09-08T04:52:58;13.50;;;10.90;;
10882;SDS011;5494;51.796;10.952;2023-09-08T04:55:26;12.13;;;10.93;;
10882;SDS011;5494;51.796;10.952;2023-09-08T04:57:54;12.07;;;10.77;;
10882;SDS011;5494;51.796;10.952;2023-09-08T05:00:24;11.80;;;10.53;;
10882;SDS011;5494;51.796;10.952;2023-09-08T05:02:52;11.73;;;10.47;;
10882;SDS011;5494;51.796;10.952;2023-09-08T05:05:21;12.20;;;10.87;;
10882;SDS011;5494;51.796;10.952;2023-09-08T05:07:49;13.07;;;10.70;;
10882;SDS011;5494;51.796;10.952;2023-09-08T05:10:21;11.47;;;10.27;;
10882;SDS011;5494;51.796;10.952;2023-09-08T05:12:49;10.80;;;9.47;;
10882;SDS011;5494;51.796;10.952;2023-09-08T05:15:19;10.50;;;9.40;;
10882;SDS011;5494;51.796;10.952;2023-09-08T05:17:51;11.03;;;9.90;;
10882;SDS011;5494;51.796;10.952;2023-09-08T05:20:21;12.20;;;9.60;;
10882;SDS011;5494;51.796;10.952;2023-09-08T05:22:49;11.20;;;8.73;;
10882;SDS011;5494;51.796;10.952;2023-09-08T05:25:17;10.47;;;9.37;;
10882;SDS011;5494;51.796;10.952;2023-09-08T05:27:47;10.40;;;8.47;;
10882;SDS011;5494;51.796;10.952;2023-09-08T05:30:16;10.13;;;8.93;;
10882;SDS011;5494;51.796;10.952;2023-09-08T05:32:44;12.50;;;9.03;;
10882;SDS011;5494;51.796;10.952;2023-09-08T05:35:12;9.77;;;8.40;;
10882;SDS011;5494;51.796;10.952;2023-09-08T05:37:41;9.33;;;8.33;;
10882;SDS011;5494;51.796;10.952;2023-09-08T05:40:10;9.03;;;8.13;;
10882;SDS011;5494;51.796;10.952;2023-09-08T05:42:39;11.70;;;7.87;;
10882;SDS011;5494;51.796;10.952;2023-09-08T05:45:12;10.67;;;7.93;;
10882;SDS011;5494;51.796;10.952;2023-09-08T05:47:40;8.90;;;8.00;;
10882;SDS011;5494;51.796;10.952;2023-09-08T05:50:09;12.03;;;7.87;;
10882;SDS011;5494;51.796;10.952;2023-09-08T05:52:38;10.03;;;7.67;;
10882;SDS011;5494;51.796;10.952;2023-09-08T05:55:06;10.43;;;6.90;;
10882;SDS011;5494;51.796;10.952;2023-09-08T05:57:35;9.37;;;8.47;;
10882;SDS011;5494;51.796;10.952;2023-09-08T06:00:04;8.27;;;7.30;;
10882;SDS011;5494;51.796;10.952;2023-09-08T06:02:44;7.83;;;6.93;;
10882;SDS011;5494;51.796;10.952;2023-09-08T06:05:15;8.20;;;7.40;;
10882;SDS011;5494;51.796;10.952;2023-09-08T06:07:43;6.77;;;5.87;;
10882;SDS011;5494;51.796;10.952;2023-09-08T06:10:30;6.07;;;5.47;;
10882;SDS011;5494;51.796;10.952;2023-09-08T06:12:58;8.37;;;7.00;;
10882;SDS011;5494;51.796;10.952;2023-09-08T06:15:28;11.73;;;6.97;;
10882;SDS011;5494;51.796;10.952;2023-09-08T06:17:57;8.77;;;6.73;;
10882;SDS011;5494;51.796;10.952;2023-09-08T06:20:26;9.00;;;7.00;;
10882;SDS011;5494;51.796;10.952;2023-09-08T06:22:55;8.70;;;7.73;;
10882;SDS011;5494;51.796;10.952;2023-09-08T06:25:23;8.53;;;7.70;;
10882;SDS011;5494;51.796;10.952;2023-09-08T06:27:51;10.47;;;8.57;;
10882;SDS011;5494;51.796;10.952;2023-09-08T06:30:19;9.57;;;7.97;;
10882;SDS011;5494;51.796;10.952;2023-09-08T06:32:48;9.00;;;8.03;;
10882;SDS011;5494;51.796;10.952;2023-09-08T06:35:18;9.53;;;8.53;;
10882;SDS011;5494;51.796;10.952;2023-09-08T06:37:46;9.60;;;8.00;;
10882;SDS011;5494;51.796;10.952;2023-09-08T06:40:15;8.27;;;7.53;;
10882;SDS011;5494;51.796;10.952;2023-09-08T06:42:43;10.80;;;8.30;;
10882;SDS011;5494;51.796;10.952;2023-09-08T06:45:19;9.17;;;8.27;;
10882;SDS011;5494;51.796;10.952;2023-09-08T06:47:48;6.97;;;6.30;;
10882;SDS011;5494;51.796;10.952;2023-09-08T06:50:18;6.60;;;5.70;;
10882;SDS011;5494;51.796;10.952;2023-09-08T06:52:46;10.97;;;5.83;;
10882;SDS011;5494;51.796;10.952;2023-09-08T06:55:15;5.47;;;5.00;;
10882;SDS011;5494;51.796;10.952;2023-09-08T06:57:44;5.83;;;4.97;;
10882;SDS011;5494;51.796;10.952;2023-09-08T07:00:13;6.57;;;4.73;;
10882;SDS011;5494;51.796;10.952;2023-09-08T07:02:43;5.23;;;4.60;;
10882;SDS011;5494;51.796;10.952;2023-09-08T07:05:12;5.23;;;4.57;;
10882;SDS011;5494;51.796;10.952;2023-09-08T07:07:42;5.73;;;4.57;;
10882;SDS011;5494;51.796;10.952;2023-09-08T07:10:11;5.30;;;4.80;;
10882;SDS011;5494;51.796;10.952;2023-09-08T07:12:40;6.43;;;4.70;;
10882;SDS011;5494;51.796;10.952;2023-09-08T07:15:09;4.70;;;4.30;;
10882;SDS011;5494;51.796;10.952;2023-09-08T07:17:38;6.50;;;4.70;;
10882;SDS011;5494;51.796;10.952;2023-09-08T07:20:07;5.67;;;4.43;;
10882;SDS011;5494;51.796;10.952;2023-09-08T07:22:37;5.67;;;4.67;;
10882;SDS011;5494;51.796;10.952;2023-09-08T07:25:07;4.83;;;4.30;;
10882;SDS011;5494;51.796;10.952;2023-09-08T07:27:36;5.10;;;4.37;;
10882;SDS011;5494;51.796;10.952;2023-09-08T07:30:05;5.73;;;4.60;;
10882;SDS011;5494;51.796;10.952;2023-09-08T07:32:35;6.90;;;4.87;;
10882;SDS011;5494;51.796;10.952;2023-09-08T07:35:03;8.00;;;6.27;;
10882;SDS011;5494;51.796;10.952;2023-09-08T07:37:41;8.80;;;6.07;;
10882;SDS011;5494;51.796;10.952;2023-09-08T07:40:11;8.27;;;6.07;;
10882;SDS011;5494;51.796;10.952;2023-09-08T07:42:39;6.03;;;5.53;;
10882;SDS011;5494;51.796;10.952;2023-09-08T07:45:08;6.37;;;5.83;;
10882;SDS011;5494;51.796;10.952;2023-09-08T07:47:36;7.07;;;5.10;;
10882;SDS011;5494;51.796;10.952;2023-09-08T07:50:18;6.63;;;5.57;;
10882;SDS011;5494;51.796;10.952;2023-09-08T07:52:49;8.20;;;5.77;;
10882;SDS011;5494;51.796;10.952;2023-09-08T07:55:20;6.90;;;6.20;;
10882;SDS011;5494;51.796;10.952;2023-09-08T07:57:50;6.53;;;5.83;;
10882;SDS011;5494;51.796;10.952;2023-09-08T08:00:19;6.87;;;6.27;;
10882;SDS011;5494;51.796;10.952;2023-09-08T08:02:48;6.10;;;5.60;;
10882;SDS011;5494;51.796;10.952;2023-09-08T08:05:19;6.83;;;5.20;;
10882;SDS011;5494;51.796;10.952;2023-09-08T08:07:47;5.67;;;5.07;;
10882;SDS011;5494;51.796;10.952;2023-09-08T08:10:16;7.00;;;5.00;;
10882;SDS011;5494;51.796;10.952;2023-09-08T08:12:47;5.40;;;4.30;;
10882;SDS011;5494;51.796;10.952;2023-09-08T08:15:15;5.00;;;4.50;;
10882;SDS011;5494;51.796;10.952;2023-09-08T08:17:48;5.90;;;4.47;;
10882;SDS011;5494;51.796;10.952;2023-09-08T08:20:16;4.87;;;4.47;;
10882;SDS011;5494;51.796;10.952;2023-09-08T08:22:45;4.60;;;4.20;;
10882;SDS011;5494;51.796;10.952;2023-09-08T08:25:14;4.73;;;4.23;;
10882;SDS011;5494;51.796;10.952;2023-09-08T08:27:42;5.50;;;3.80;;
10882;SDS011;5494;51.796;10.952;2023-09-08T08:30:12;6.13;;;4.20;;
10882;SDS011;5494;51.796;10.952;2023-09-08T08:32:40;4.30;;;4.00;;
10882;SDS011;5494;51.796;10.952;2023-09-08T08:35:09;6.27;;;4.40;;
10882;SDS011;5494;51.796;10.952;2023-09-08T08:37:38;4.40;;;4.00;;
10882;SDS011;5494;51.796;10.952;2023-09-08T08:40:08;4.50;;;3.87;;
10882;SDS011;5494;51.796;10.952;2023-09-08T08:42:39;4.80;;;4.00;;
10882;SDS011;5494;51.796;10.952;2023-09-08T08:45:09;5.80;;;5.00;;
10882;SDS011;5494;51.796;10.952;2023-09-08T08:47:39;10.73;;;4.50;;
10882;SDS011;5494;51.796;10.952;2023-09-08T08:50:09;4.75;;;4.32;;
10882;SDS011;5494;51.796;10.952;2023-09-08T08:52:40;5.43;;;4.88;;
10882;SDS011;5494;51.796;10.952;2023-09-08T08:55:08;11.43;;;5.03;;
10882;SDS011;5494;51.796;10.952;2023-09-08T08:57:37;5.55;;;4.82;;
10882;SDS011;5494;51.796;10.952;2023-09-08T09:00:07;5.55;;;5.03;;
10882;SDS011;5494;51.796;10.952;2023-09-08T09:02:41;8.37;;;4.80;;
10882;SDS011;5494;51.796;10.952;2023-09-08T09:05:18;7.70;;;5.00;;
10882;SDS011;5494;51.796;10.952;2023-09-08T09:07:47;6.90;;;4.83;;
10882;SDS011;5494;51.796;10.952;2023-09-08T09:10:17;7.10;;;4.93;;
10882;SDS011;5494;51.796;10.952;2023-09-08T09:12:45;6.83;;;5.47;;
10882;SDS011;5494;51.796;10.952;2023-09-08T09:15:13;7.40;;;5.57;;
10882;SDS011;5494;51.796;10.952;2023-09-08T09:17:43;5.83;;;5.20;;
10882;SDS011;5494;51.796;10.952;2023-09-08T09:20:30;5.93;;;5.27;;
10882;SDS011;5494;51.796;10.952;2023-09-08T09:22:58;6.87;;;5.30;;
10882;SDS011;5494;51.796;10.952;2023-09-08T09:25:28;6.60;;;5.10;;
10882;SDS011;5494;51.796;10.952;2023-09-08T09:28:00;7.33;;;5.00;;
10882;SDS011;5494;51.796;10.952;2023-09-08T09:30:46;6.93;;;4.87;;
10882;SDS011;5494;51.796;10.952;2023-09-08T09:33:18;6.37;;;4.40;;
10882;SDS011;5494;51.796;10.952;2023-09-08T09:35:48;7.63;;;5.03;;
10882;SDS011;5494;51.796;10.952;2023-09-08T09:38:18;5.93;;;4.83;;
10882;SDS011;5494;51.796;10.952;2023-09-08T09:40:47;6.83;;;5.10;;
10882;SDS011;5494;51.796;10.952;2023-09-08T09:43:16;7.07;;;5.23;;
10882;SDS011;5494;51.796;10.952;2023-09-08T09:45:49;6.77;;;4.93;;
10882;SDS011;5494;51.796;10.952;2023-09-08T09:48:19;6.17;;;4.50;;
10882;SDS011;5494;51.796;10.952;2023-09-08T09:50:49;5.93;;;5.13;;
10882;SDS011;5494;51.796;10.952;2023-09-08T09:53:17;5.83;;;4.97;;
10882;SDS011;5494;51.796;10.952;2023-09-08T09:55:47;6.70;;;4.83;;
10882;SDS011;5494;51.796;10.952;2023-09-08T09:58:16;4.73;;;4.20;;
10882;SDS011;5494;51.796;10.952;2023-09-08T10:00:48;4.73;;;4.23;;
10882;SDS011;5494;51.796;10.952;2023-09-08T10:03:20;6.03;;;4.40;;
10882;SDS011;5494;51.796;10.952;2023-09-08T10:05:51;4.73;;;4.17;;
10882;SDS011;5494;51.796;10.952;2023-09-08T10:08:19;5.50;;;4.40;;
10882;SDS011;5494;51.796;10.952;2023-09-08T10:10:47;6.90;;;4.20;;
10882;SDS011;5494;51.796;10.952;2023-09-08T10:13:18;6.00;;;3.70;;
10882;SDS011;5494;51.796;10.952;2023-09-08T10:15:55;5.83;;;4.50;;
10882;SDS011;5494;51.796;10.952;2023-09-08T10:18:27;5.90;;;4.60;;
10882;SDS011;5494;51.796;10.952;2023-09-08T10:20:58;4.37;;;3.97;;
10882;SDS011;5494;51.796;10.952;2023-09-08T10:23:34;8.30;;;4.37;;
10882;SDS011;5494;51.796;10.952;2023-09-08T10:26:09;5.13;;;4.63;;
10882;SDS011;5494;51.796;10.952;2023-09-08T10:28:39;7.17;;;4.33;;
10882;SDS011;5494;51.796;10.952;2023-09-08T10:31:07;4.47;;;4.10;;
10882;SDS011;5494;51.796;10.952;2023-09-08T10:33:42;4.20;;;3.80;;
10882;SDS011;5494;51.796;10.952;2023-09-08T10:36:13;4.27;;;3.93;;
10882;SDS011;5494;51.796;10.952;2023-09-08T10:38:42;4.20;;;3.80;;
10882;SDS011;5494;51.796;10.952;2023-09-08T10:41:25;5.17;;;3.57;;
10882;SDS011;5494;51.796;10.952;2023-09-08T10:43:59;7.27;;;4.43;;
10882;SDS011;5494;51.796;10.952;2023-09-08T10:46:34;6.23;;;3.83;;
10882;SDS011;5494;51.796;10.952;2023-09-08T10:49:06;6.47;;;3.90;;
10882;SDS011;5494;51.796;10.952;2023-09-08T10:51:36;6.23;;;3.93;;
10882;SDS011;5494;51.796;10.952;2023-09-08T10:54:06;9.27;;;4.40;;
10882;SDS011;5494;51.796;10.952;2023-09-08T10:56:47;5.60;;;4.20;;
10882;SDS011;5494;51.796;10.952;2023-09-08T10:59:21;4.53;;;4.13;;
10882;SDS011;5494;51.796;10.952;2023-09-08T11:01:53;5.13;;;3.90;;
10882;SDS011;5494;51.796;10.952;2023-09-08T11:04:24;5.50;;;4.90;;
10882;SDS011;5494;51.796;10.952;2023-09-08T11:06:55;4.50;;;4.10;;
10882;SDS011;5494;51.796;10.952;2023-09-08T11:09:24;4.43;;;3.87;;
10882;SDS011;5494;51.796;10.952;2023-09-08T11:11:53;5.33;;;4.33;;
10882;SDS011;5494;51.796;10.952;2023-09-08T11:14:21;5.03;;;4.10;;
10882;SDS011;5494;51.796;10.952;2023-09-08T11:16:49;4.80;;;4.37;;
10882;SDS011;5494;51.796;10.952;2023-09-08T11:19:18;6.83;;;4.20;;
10882;SDS011;5494;51.796;10.952;2023-09-08T11:21:48;7.70;;;4.60;;
10882;SDS011;5494;51.796;10.952;2023-09-08T11:24:16;4.47;;;3.50;;
10882;SDS011;5494;51.796;10.952;2023-09-08T11:26:45;4.70;;;3.90;;
10882;SDS011;5494;51.796;10.952;2023-09-08T11:29:16;13.97;;;4.70;;
10882;SDS011;5494;51.796;10.952;2023-09-08T11:31:46;6.23;;;4.80;;
10882;SDS011;5494;51.796;10.952;2023-09-08T11:34:20;4.77;;;4.23;;
10882;SDS011;5494;51.796;10.952;2023-09-08T11:36:49;4.23;;;3.73;;
10882;SDS011;5494;51.796;10.952;2023-09-08T11:39:22;7.53;;;4.40;;
10882;SDS011;5494;51.796;10.952;2023-09-08T11:41:51;6.10;;;4.10;;
10882;SDS011;5494;51.796;10.952;2023-09-08T11:44:20;13.93;;;4.60;;
10882;SDS011;5494;51.796;10.952;2023-09-08T11:46:48;5.70;;;4.53;;
10882;SDS011;5494;51.796;10.952;2023-09-08T11:49:18;4.93;;;4.03;;
10882;SDS011;5494;51.796;10.952;2023-09-08T11:51:50;5.57;;;4.47;;
10882;SDS011;5494;51.796;10.952;2023-09-08T11:54:18;6.03;;;4.40;;
10882;SDS011;5494;51.796;10.952;2023-09-08T11:56:47;8.43;;;5.03;;
10882;SDS011;5494;51.796;10.952;2023-09-08T11:59:15;5.77;;;4.87;;
10882;SDS011;5494;51.796;10.952;2023-09-08T12:01:44;5.93;;;4.80;;
10882;SDS011;5494;51.796;10.952;2023-09-08T12:04:16;8.50;;;5.63;;
10882;SDS011;5494;51.796;10.952;2023-09-08T12:06:46;6.23;;;4.80;;
10882;SDS011;5494;51.796;10.952;2023-09-08T12:09:17;7.60;;;5.23;;
10882;SDS011;5494;51.796;10.952;2023-09-08T12:11:48;12.17;;;5.30;;
10882;SDS011;5494;51.796;10.952;2023-09-08T12:14:17;5.77;;;4.20;;
10882;SDS011;5494;51.796;10.952;2023-09-08T12:16:45;13.13;;;5.07;;
10882;SDS011;5494;51.796;10.952;2023-09-08T12:19:29;6.13;;;4.53;;
10882;SDS011;5494;51.796;10.952;2023-09-08T12:22:00;9.13;;;5.17;;
10882;SDS011;5494;51.796;10.952;2023-09-08T12:24:47;6.07;;;4.60;;
10882;SDS011;5494;51.796;10.952;2023-09-08T12:27:23;6.37;;;4.80;;
10882;SDS011;5494;51.796;10.952;2023-09-08T12:29:53;5.93;;;4.30;;
10882;SDS011;5494;51.796;10.952;2023-09-08T12:32:23;4.57;;;4.13;;
10882;SDS011;5494;51.796;10.952;2023-09-08T12:34:53;6.33;;;4.63;;
10882;SDS011;5494;51.796;10.952;2023-09-08T12:37:21;4.90;;;4.40;;
10882;SDS011;5494;51.796;10.952;2023-09-08T12:39:52;4.60;;;4.20;;
10882;SDS011;5494;51.796;10.952;2023-09-08T12:42:21;8.57;;;4.30;;
10882;SDS011;5494;51.796;10.952;2023-09-08T12:44:52;6.63;;;5.00;;
10882;SDS011;5494;51.796;10.952;2023-09-08T12:47:21;6.67;;;4.97;;
10882;SDS011;5494;51.796;10.952;2023-09-08T12:49:49;8.17;;;4.27;;
10882;SDS011;5494;51.796;10.952;2023-09-08T12:52:18;4.50;;;4.10;;
10882;SDS011;5494;51.796;10.952;2023-09-08T12:54:46;4.47;;;4.13;;
10882;SDS011;5494;51.796;10.952;2023-09-08T12:57:15;7.07;;;3.90;;
10882;SDS011;5494;51.796;10.952;2023-09-08T12:59:43;5.03;;;4.10;;
10882;SDS011;5494;51.796;10.952;2023-09-08T13:02:11;8.00;;;4.57;;
10882;SDS011;5494;51.796;10.952;2023-09-08T13:04:40;5.60;;;4.00;;
10882;SDS011;5494;51.796;10.952;2023-09-08T13:07:08;5.53;;;3.97;;
10882;SDS011;5494;51.796;10.952;2023-09-08T13:09:36;4.90;;;3.70;;
10882;SDS011;5494;51.796;10.952;2023-09-08T13:12:05;5.00;;;3.90;;
10882;SDS011;5494;51.796;10.952;2023-09-08T13:14:36;5.83;;;4.00;;
10882;SDS011;5494;51.796;10.952;2023-09-08T13:17:05;32.43;;;6.27;;
10882;SDS011;5494;51.796;10.952;2023-09-08T13:19:33;6.13;;;4.10;;
10882;SDS011;5494;51.796;10.952;2023-09-08T13:22:01;4.17;;;3.77;;
10882;SDS011;5494;51.796;10.952;2023-09-08T13:24:30;4.97;;;3.87;;
10882;SDS011;5494;51.796;10.952;2023-09-08T13:26:58;5.13;;;3.60;;
10882;SDS011;5494;51.796;10.952;2023-09-08T13:29:26;4.57;;;3.50;;
10882;SDS011;5494;51.796;10.952;2023-09-08T13:31:56;3.77;;;3.20;;
10882;SDS011;5494;51.796;10.952;2023-09-08T13:34:25;5.83;;;3.30;;
10882;SDS011;5494;51.796;10.952;2023-09-08T13:36:53;23.13;;;4.27;;
10882;SDS011;5494;51.796;10.952;2023-09-08T13:39:21;3.30;;;3.00;;
10882;SDS011;5494;51.796;10.952;2023-09-08T13:41:50;3.00;;;2.80;;
10882;SDS011;5494;51.796;10.952;2023-09-08T13:44:19;4.27;;;2.63;;
10882;SDS011;5494;51.796;10.952;2023-09-08T13:46:49;2.80;;;2.10;;
10882;SDS011;5494;51.796;10.952;2023-09-08T13:49:20;2.53;;;2.30;;
10882;SDS011;5494;51.796;10.952;2023-09-08T13:51:52;2.87;;;2.10;;
10882;SDS011;5494;51.796;10.952;2023-09-08T13:54:22;3.80;;;2.60;;
10882;SDS011;5494;51.796;10.952;2023-09-08T13:56:57;2.83;;;2.20;;
10882;SDS011;5494;51.796;10.952;2023-09-08T13:59:28;2.67;;;2.47;;
10882;SDS011;5494;51.796;10.952;2023-09-08T14:02:01;2.93;;;2.50;;
10882;SDS011;5494;51.796;10.952;2023-09-08T14:04:35;3.47;;;2.70;;
10882;SDS011;5494;51.796;10.952;2023-09-08T14:07:08;4.17;;;2.77;;
10882;SDS011;5494;51.796;10.952;2023-09-08T14:09:43;3.20;;;2.90;;
10882;SDS011;5494;51.796;10.952;2023-09-08T14:12:15;3.27;;;2.40;;
10882;SDS011;5494;51.796;10.952;2023-09-08T14:14:46;3.40;;;3.00;;
10882;SDS011;5494;51.796;10.952;2023-09-08T14:17:14;3.33;;;2.80;;
10882;SDS011;5494;51.796;10.952;2023-09-08T14:19:44;4.40;;;2.70;;
10882;SDS011;5494;51.796;10.952;2023-09-08T14:22:12;3.07;;;2.77;;
10882;SDS011;5494;51.796;10.952;2023-09-08T14:24:40;4.90;;;2.60;;
10882;SDS011;5494;51.796;10.952;2023-09-08T14:27:08;3.30;;;3.00;;
10882;SDS011;5494;51.796;10.952;2023-09-08T14:29:36;3.37;;;2.70;;
10882;SDS011;5494;51.796;10.952;2023-09-08T14:32:05;3.73;;;2.93;;
10882;SDS011;5494;51.796;10.952;2023-09-08T14:34:33;3.17;;;2.80;;
10882;SDS011;5494;51.796;10.952;2023-09-08T14:37:03;2.97;;;2.63;;
10882;SDS011;5494;51.796;10.952;2023-09-08T14:39:34;4.30;;;2.70;;
10882;SDS011;5494;51.796;10.952;2023-09-08T14:42:02;3.87;;;2.57;;
10882;SDS011;5494;51.796;10.952;2023-09-08T14:44:31;3.67;;;2.73;;
10882;SDS011;5494;51.796;10.952;2023-09-08T14:46:59;4.93;;;2.80;;
10882;SDS011;5494;51.796;10.952;2023-09-08T14:49:27;3.30;;;3.03;;
10882;SDS011;5494;51.796;10.952;2023-09-08T14:51:55;2.97;;;2.60;;
10882;SDS011;5494;51.796;10.952;2023-09-08T14:54:25;3.40;;;3.10;;
10882;SDS011;5494;51.796;10.952;2023-09-08T14:56:55;7.37;;;3.27;;
10882;SDS011;5494;51.796;10.952;2023-09-08T14:59:23;3.57;;;3.27;;